• Join FlightAware (Why Join?)
  • Login
  • US Flag 
02:43AM EST


 

Airport Tracker/Info


-or-


 

Live Flight TrackerFlight Track Log ✈ N618JB ✈ 11-Apr-2013 ✈ TJBQ / BQN - KMCO

Flight Track Log - Related Links

Times and Time Zones

All times are in EDT time to prevent confusion due to time zone crossing. See the N618JB flight status page for this flight to view local times or setup timezone preferences in your user account.

Time Position Orientation Groundspeed Altitude Reporting Facility
EDT Latitude Longitude Course Direction KTS MPH feet Rate Location/Type
03:24AM 18.5333 -67.1000 309° West 220 253 2,400  Level San Juan Center
03:25AM 18.5667 -67.1833 293° West 290 334 5,400 2,820 Climbing San Juan Center
03:26AM 18.6645 -67.3341 311° West  Level FlightAware Approximate
03:26AM 18.6000 -67.2667 293° West 280 322 8,200  Level San Juan Center
03:27AM 18.7328 -67.4160 311° West  Level FlightAware Approximate
03:27AM 18.6500 -67.3333 308° West 300 345 10,700  Level San Juan Center
03:28AM 18.7924 -67.5052 305° West  Level FlightAware Approximate
03:28AM 18.7167 -67.4000 317° Northwest 370 426 11,800  Level San Juan Center
03:29AM 18.8559 -67.5908 309° West  Level FlightAware Approximate
03:29AM 18.7833 -67.5000 305° West 380 437 14,300  Level San Juan Center
03:30AM 18.9143 -67.6658 309° West  Level FlightAware Approximate
03:30AM 18.8500 -67.5833 310° West 400 460 16,200  Level San Juan Center
03:31AM 18.9167 -67.6833 305° West 410 472 18,200 1,980 Climbing San Juan Center
03:32AM 18.9833 -67.7667 310° West 400 460 20,200 1,680 Climbing San Juan Center
03:33AM 19.0667 -67.8667 311° West 410 472 21,600 1,380 Climbing San Juan Center
03:34AM 19.1333 -67.9667 305° West 410 472 23,100 1,500 Climbing San Juan Center
03:35AM 19.2000 -68.0667 305° West 420 483 24,700 1,500 Climbing San Juan Center
03:36AM 19.2833 -68.1500 317° Northwest 420 483 26,200 1,320 Climbing San Juan Center
03:37AM 19.3500 -68.2500 305° West 420 483 27,400 1,140 Climbing San Juan Center
03:38AM 19.4333 -68.3500 311° West 430 495 28,500 1,440 Climbing San Juan Center
03:39AM 19.5000 -68.4500 305° West 420 483 30,300 1,620 Climbing San Juan Center
03:41AM 19.6431 -68.6661 305° West 405 466 33,700 1,140 Climbing Miami Center
03:42AM 19.7119 -68.7519 310° West 392 451 34,000 120 Climbing Miami Center
03:43AM 19.7750 -68.8450 306° West 387 445 34,000  Level Miami Center
03:44AM 19.8439 -68.9314 310° West 387 445 34,000  Level Miami Center
03:45AM 19.9086 -69.0200 308° West 387 445 34,000  Level Miami Center
03:46AM 19.9756 -69.1108 308° West 387 445 34,000  Level Miami Center
03:47AM 20.0425 -69.1997 309° West 387 445 34,000  Level Miami Center
03:48AM 20.1092 -69.2864 309° West 387 445 34,000  Level Miami Center
03:49AM 20.1758 -69.3775 308° West 387 445 34,000  Level Miami Center
03:50AM 20.2428 -69.4667 309° West 387 445 34,000  Level Miami Center
03:51AM 20.3072 -69.5536 308° West 387 445 34,000  Level Miami Center
03:52AM 20.3717 -69.6431 308° West 387 445 34,000  Level Miami Center
03:53AM 20.4383 -69.7322 309° West 387 445 34,000  Level Miami Center
03:54AM 20.5028 -69.8219 307° West 387 445 34,000  Level Miami Center
03:55AM 20.5694 -69.9114 309° West 387 445 34,000  Level Miami Center
03:56AM 20.6358 -70.0008 308° West 382 440 34,000  Level Miami Center
03:57AM 20.7000 -70.0886 308° West 382 440 34,000  Level Miami Center
03:58AM 20.7664 -70.1783 308° West 382 440 34,000  Level Miami Center
03:59AM 20.8328 -70.2681 308° West 382 440 34,000  Level Miami Center
04:00AM 20.8994 -70.3603 308° West 382 440 34,000  Level Miami Center
04:01AM 20.9633 -70.4481 308° West 382 440 34,000  Level Miami Center
04:02AM 21.0297 -70.5383 308° West 382 440 34,000  Level Miami Center
04:03AM 21.0936 -70.6264 308° West 382 440 34,000  Level Miami Center
04:04AM 21.1600 -70.7167 308° West 382 440 34,000  Level Miami Center
04:05AM 21.2258 -70.8047 309° West 382 440 34,000  Level Miami Center
04:06AM 21.2919 -70.8953 308° West 382 440 34,000  Level Miami Center
04:07AM 21.3558 -70.9839 308° West 382 440 34,000  Level Miami Center
04:08AM 21.4264 -71.0808 308° West 377 434 34,000  Level Miami Center
04:09AM 21.4925 -71.1739 307° West 377 434 34,000  Level Miami Center
04:10AM 21.5650 -71.2733 308° West 460 529 34,000  Level Miami Center
04:11AM 21.6244 -71.3625 306° West 421 484 34,000  Level Miami Center
04:12AM 21.6903 -71.4511 309° West 399 459 34,000  Level Miami Center
04:13AM 21.7558 -71.5422 308° West 388 447 34,000  Level Miami Center
04:14AM 21.8197 -71.6336 307° West 383 441 34,000  Level Miami Center
04:15AM 21.8853 -71.7247 308° West 383 441 34,000  Level Miami Center
04:16AM 21.9489 -71.8186 306° West 383 441 34,000  Level Miami Center
04:17AM 22.0144 -71.9056 309° West 383 441 34,000  Level Miami Center
04:18AM 22.0781 -71.9994 306° West 383 441 34,000  Level Miami Center
04:19AM 22.1414 -72.0892 307° West 378 435 34,000  Level Miami Center
04:20AM 22.2069 -72.1831 307° West 378 435 34,000 60 Level Miami Center
04:21AM 22.2722 -72.2750 308° West 378 435 34,200 840 Climbing Miami Center
04:22AM 22.3269 -72.3539 307° West 378 435 35,700 840 Climbing Miami Center
04:23AM 22.3878 -72.4369 308° West 373 429 36,000 120 Climbing Miami Center
04:24AM 22.4467 -72.5225 307° West 367 422 36,000  Level Miami Center
04:25AM 22.5053 -72.6083 306° West 362 417 36,000  Level Miami Center
04:26AM 22.5642 -72.6939 307° West 357 411 36,000  Level Miami Center
04:27AM 22.6250 -72.7797 308° West 357 411 36,000  Level Miami Center
04:28AM 22.6856 -72.8656 307° West 352 405 36,000  Level Miami Center
04:29AM 22.7464 -72.9517 307° West 357 411 36,000  Level Miami Center
04:30AM 22.8008 -73.0422 303° West 357 411 36,000  Level Miami Center
04:31AM 22.8656 -73.1261 310° West 357 411 36,000  Level Miami Center
04:32AM 22.9200 -73.2144 304° West 352 405 36,000  Level Miami Center
04:33AM 22.9764 -73.3031 305° West 352 405 36,000  Level Miami Center
04:34AM 23.0475 -73.3961 310° West 357 411 36,000  Level Miami Center
04:35AM 23.1039 -73.4825 305° West 357 411 36,000  Level Miami Center
04:36AM 23.1664 -73.5711 308° West 362 417 36,000  Level Miami Center
04:37AM 23.2289 -73.6578 308° West 367 422 36,000  Level Miami Center
04:38AM 23.2892 -73.7444 307° West 367 422 36,000  Level Miami Center
04:39AM 23.3472 -73.8314 306° West 367 422 36,000  Level Miami Center
04:40AM 23.4056 -73.9181 306° West 367 422 36,000  Level Miami Center
04:41AM 23.4678 -74.0050 308° West 362 417 36,000  Level Miami Center
04:42AM 23.5258 -74.0922 306° West 357 411 36,000  Level Miami Center
04:43AM 23.5839 -74.1792 306° West 350 403 36,000  Level Miami Center
04:44AM 23.6439 -74.2686 306° West 355 409 36,000  Level Miami Center
04:45AM 23.7017 -74.3558 306° West 355 409 36,000  Level Miami Center
04:46AM 23.7639 -74.4433 308° West 355 409 36,000  Level Miami Center
04:47AM 23.8217 -74.5331 305° West 360 414 36,000  Level Miami Center
04:48AM 23.8836 -74.6228 307° West 360 414 36,000  Level Miami Center
04:49AM 23.9433 -74.7103 307° West 360 414 36,000  Level Miami Center
04:50AM 24.0031 -74.8003 306° West 360 414 36,000  Level Miami Center
04:51AM 24.0608 -74.8881 306° West 360 414 36,000  Level Miami Center
04:52AM 24.1206 -74.9761 307° West 355 409 36,000  Level Miami Center
04:53AM 24.1800 -75.0661 306° West 355 409 36,000  Level Miami Center
04:54AM 24.2417 -75.1564 307° West 360 414 36,000  Level Miami Center
04:55AM 24.3014 -75.2469 306° West 365 420 36,000  Level Miami Center
04:56AM 24.3586 -75.3394 304° West 365 420 36,000  Level Miami Center
04:57AM 24.4181 -75.4278 306° West 370 426 36,000  Level Miami Center
04:58AM 24.4794 -75.5183 307° West 370 426 36,000  Level Miami Center
04:59AM 24.5389 -75.6114 305° West 375 432 36,000  Level Miami Center
05:00AM 24.5981 -75.7000 306° West 375 432 36,000  Level Miami Center
05:01AM 24.6572 -75.7933 305° West 375 432 36,000  Level Miami Center
05:02AM 24.7164 -75.8819 306° West 375 432 36,000  Level Miami Center
05:03AM 24.7775 -75.9731 306° West 380 437 36,000  Level Miami Center
05:04AM 24.8386 -76.0619 307° West 375 432 36,000  Level Miami Center
05:05AM 24.8956 -76.1531 305° West 375 432 36,000  Level Miami Center
05:06AM 24.9544 -76.2444 305° West 375 432 36,000  Level Miami Center
05:07AM 25.0114 -76.3358 305° West 375 432 36,000  Level Miami Center
05:08AM 25.0597 -76.4114 305° West 375 432 36,000  Level Miami Center
05:09AM 25.1228 -76.5100 305° West 375 432 36,000  Level Miami Center
05:10AM 25.1833 -76.6017 306° West 375 432 36,000  Level Miami Center
05:11AM 25.2442 -76.6911 307° West 375 432 36,000  Level Miami Center
05:12AM 25.3028 -76.7828 305° West 375 432 36,000  Level Miami Center
05:13AM 25.3614 -76.8750 305° West 375 432 36,000  Level Miami Center
05:14AM 25.4219 -76.9692 305° West 375 432 36,000  Level Miami Center
05:15AM 25.4803 -77.0636 304° West 375 432 36,000  Level Miami Center
05:16AM 25.5408 -77.1581 305° West 375 432 36,000  Level Miami Center
05:17AM 25.5992 -77.2506 305° West 375 432 36,000  Level Miami Center
05:18AM 25.6594 -77.3453 305° West 380 437 36,000  Level Miami Center
05:19AM 25.7175 -77.4378 305° West 380 437 36,000  Level Miami Center
05:20AM 25.7819 -77.5419 305° West 380 437 36,000  Level Miami Center
05:21AM 25.8419 -77.6344 306° West 380 437 36,000  Level Miami Center
05:22AM 25.9022 -77.7297 305° West 380 437 36,000  Level Miami Center
05:23AM 25.9581 -77.8272 303° West 375 432 36,000  Level Miami Center
05:24AM 26.0178 -77.9200 306° West 375 432 36,000  Level Miami Center
05:25AM 26.0758 -78.0108 305° West 375 432 36,000  Level Miami Center
05:26AM 26.1356 -78.1086 304° West 381 438 36,000  Level Miami Center
05:27AM 26.1931 -78.2042 304° West 381 438 36,000  Level Miami Center
05:28AM 26.2508 -78.2997 304° West 374 430 36,000  Level Miami Center
05:29AM 26.3125 -78.3933 306° West 379 436 36,000  Level Miami Center
05:30AM 26.3700 -78.4892 304° West 379 436 36,000  Level Miami Center
05:31AM 26.4275 -78.5828 304° West 379 436 36,000  Level Miami Center
05:32AM 26.4911 -78.6764 307° West 379 436 36,000  Level Miami Center
05:33AM 26.5525 -78.7728 305° West 374 430 36,000 -60 Level Miami Center
05:34AM 26.6075 -78.8667 303° West 374 430 35,900  Descending Miami Center
05:35AM 26.6669 -78.9628 305° West 381 438 36,000  Climbing Miami Center
05:36AM 26.7239 -79.0592 303° West 381 438 36,000  Level Miami Center
05:37AM 26.7808 -79.1558 303° West 376 433 36,000  Level Miami Center
05:38AM 26.8419 -79.2525 305° West 376 433 36,000  Level Miami Center
05:39AM 26.8947 -79.3467 302° West 370 426 36,000  Level Miami Center
05:40AM 26.9556 -79.4433 305° West 375 432 36,000  Level Miami Center
05:41AM 27.0083 -79.5286 305° West 369 425 36,000  Level Miami Center
05:42AM 27.0650 -79.6278 303° West 380 437 36,000  Level Miami Center
05:43AM 27.1297 -79.7344 304° West 380 437 36,000  Level Miami Center
05:44AM 27.1906 -79.8317 305° West 375 432 36,000 -120 Level Miami Center
05:45AM 27.2408 -79.9217 302° West 381 438 35,800 -600 Descending Miami Center
05:46AM 27.2992 -80.0214 303° West 381 438 34,900 -960 Descending Miami Center
05:47AM 27.3597 -80.1214 304° West 381 438 33,900 -1,020 Descending Miami Center
05:48AM 27.4219 -80.2236 304° West 386 444 32,900 -1,800 Descending Miami Center
05:49AM 27.4842 -80.3308 303° West 398 458 30,300 -3,000 Descending Miami Center
05:50AM 27.5503 -80.4428 304° West 411 473 27,000 -3,240 Descending Miami Center
05:51AM 27.6164 -80.5550 304° West 427 491 24,000 -3,180 Descending Miami Center
05:53AM 27.7333 -80.7500 304° West 429 494 19,100 -2,880 Descending Orlando TRACON
05:54AM 27.7833 -80.8500 299° West 418 481 16,700 -2,580 Descending Orlando TRACON
05:55AM 27.8500 -80.9333 312° West 403 464 14,200 -2,580 Descending Orlando TRACON
05:56AM 27.9167 -81.0500 303° West 386 444 11,600 -1,500 Descending Orlando TRACON
05:57AM 27.9833 -81.1333 312° West 354 407 11,100 -300 Descending Orlando TRACON
05:58AM 28.0833 -81.1667 344° North 345 397 11,100 -660 Level Orlando TRACON
05:59AM 28.1667 -81.1833 350° North 303 349 9,800 -1,080 Descending Orlando TRACON
06:00AM 28.2500 -81.1833 360° North 300 345 9,000 -1,080 Descending Orlando TRACON
06:01AM 28.3333 -81.1833 360° North 296 341 7,700 -1,500 Descending Orlando TRACON
06:02AM 28.4167 -81.1833 360° North 287 330 6,100 -2,100 Descending Orlando TRACON
06:03AM 28.4833 -81.1833 360° North 286 329 3,600 -1,500 Descending Orlando TRACON
06:04AM 28.5667 -81.1833 360° North 273 314 3,100 -300 Descending Orlando TRACON
06:05AM 28.6000 -81.2500 300° West 236 272 3,100 -120 Level Orlando TRACON
06:06AM 28.6000 -81.3167 270° West 206 237 2,900 -360 Descending Orlando TRACON
06:07AM 28.5500 -81.3333 196° South 163 188 2,400 -780 Descending Orlando TRACON
06:08AM 28.5000 -81.3333 180° South 141 162 1,300 -900 Descending Orlando TRACON
06:09AM 28.4667 -81.3333 180° South 130 150 600 -780 Descending Orlando TRACON